• Join FlightAware (Why Join?)
  • Login
  • US Flag 
04:00PM EDT


 

Airport Tracker/Info


-or-


 

Live Flight TrackerFlight Track Log ✈ AWE3208 ✈ 06-Oct-2013 ✈ KPHL - KSYR

Flight Track Log - Related Links

Times and Time Zones

All times are in EDT time to prevent confusion due to time zone crossing. See the AWE3208 flight status page for this flight to view local times or setup timezone preferences in your user account.

Time Position Orientation Groundspeed Altitude Reporting Facility
EDT Latitude Longitude Course Direction KTS MPH feet Rate Location/Type
09:32PM 39.8833 -75.2167 286° West 157 181 1,000  Level Philadelphia TRACON
09:32PM 39.8833 -75.1833 90° East 186 214 1,900 2,220 Climbing Philadelphia TRACON
09:34PM 40.2383 -75.3344 323° Northwest  Level Estimated
09:34PM 39.9167 -75.1167 57° Northeast 244 281 4,600  Level Philadelphia TRACON
09:34PM 39.9833 -75.1000 11° North 272 313 7,400 2,820 Climbing Philadelphia TRACON
09:35PM 40.3603 -75.3658 311° West  Level Estimated
09:35PM 40.0167 -75.1667 303° West 284 327 9,700  Level Philadelphia TRACON
09:36PM 40.4823 -75.3973 312° West  Level Estimated
09:36PM 40.0667 -75.2667 303° West 354 407 10,000  Level Philadelphia TRACON
09:37PM 40.5175 -75.5541 286° West  Level FlightAware Approximate
09:38PM 40.1353 -75.3972 305° West 370 426 12,000  Level New York Center
09:39PM 40.1933 -75.5125 303° West 358 412 13,000 1,020 Climbing New York Center
09:40PM 40.2581 -75.6122 310° West 353 406 14,100 1,440 Climbing New York Center
09:41PM 40.3228 -75.7119 310° West 358 412 15,900 900 Climbing New York Center
09:42PM 40.3892 -75.8122 311° West 363 418 16,000  Climbing New York Center
09:43PM 40.4497 -75.9067 310° West 368 423 16,000  Level New York Center
09:44PM 40.5206 -76.0075 313° West 373 429 16,000  Level New York Center
09:45PM 40.5847 -76.1108 309° West 373 429 16,000  Level New York Center
09:46PM 40.6672 -76.2183 315° West 373 429 16,000  Level New York Center
09:47PM 40.7703 -76.2431 350° North 373 429 16,000  Level New York Center
09:48PM 40.8831 -76.2356 North 373 429 16,000  Level New York Center
09:49PM 40.9836 -76.2244 North 396 456 16,000  Level New York Center
09:50PM 41.0967 -76.2169 North 401 461 16,000  Level New York Center
09:51PM 41.2200 -76.2078 North 409 471 16,000  Level New York Center
09:52PM 41.3306 -76.2000 North 409 471 16,000  Level New York Center
09:53PM 41.4433 -76.1925 North 409 471 16,100  Climbing New York Center
09:54PM 41.5544 -76.1819 North 409 471 16,000 -60 Descending New York Center
09:55PM 41.6544 -76.1764 North 403 464 16,000 -60 Level New York Center
09:56PM 41.7781 -76.1642 North 403 464 15,900 -300 Descending New York Center
09:57PM 41.8906 -76.1592 North 403 464 15,400 -600 Descending New York Center
09:58PM 41.9972 -76.1511 North 403 464 14,700 -720 Descending New York Center
09:59PM 42.1017 -76.1431 North 389 448 14,000 -720 Descending New York Center
10:00PM 42.2081 -76.1350 North 389 448 13,300 -720 Descending New York Center
10:01PM 42.3108 -76.1208 North 384 442 12,600 -720 Descending New York Center
10:02PM 42.4392 -76.1089 North 371 427 11,700 -720 Descending Boston Center
10:03PM 42.5450 -76.1181 356° North 345 397 11,100 -540 Descending Boston Center
10:04PM 42.6333 -76.1600 341° North 333 383 10,700 -780 Descending Boston Center
10:05PM 42.7175 -76.1989 341° North 315 362 9,600 -1,320 Descending Boston Center
10:06PM 42.7978 -76.2322 343° North 306 352 8,100 -1,620 Descending Boston Center
10:07PM 42.8781 -76.2656 343° North 302 348 6,300 -1,800 Descending Boston Center
10:08PM 42.9603 -76.3019 342° North 298 343 4,500 -1,680 Descending Boston Center
10:09PM 43.0389 -76.3153 353° North 296 341 3,000 -1,020 Descending Boston Center
10:10PM 43.1183 -76.3147 360° North 271 312 2,500 -540 Descending Boston Center
10:11PM 43.1781 -76.2672 30° Northeast 229 264 2,000 -240 Descending Boston Center
10:12PM 43.1822 -76.2047 85° East 145 167 2,100 -300 Climbing Boston Center
10:13PM 43.1544 -76.1689 137° Southeast 117 135 1,500 -600 Descending Boston Center
10:14PM 43.1347 -76.1336 127° Southeast 116 133 900 -600 Descending Boston Center